TimeCST,TemperatureF,Dew PointF,Humidity,Sea Level PressureIn,VisibilityMPH,Wind Direction,Wind SpeedMPH,Gust SpeedMPH,PrecipitationIn,Events,Conditions,WindDirDegrees,DateUTC
12:15 AM,59.0,46.4,63,30.06,10.0,WSW,9.2,-,N/A,,Overcast,240,2012-11-23 06:15:00
12:35 AM,59.0,46.4,63,30.06,10.0,WSW,9.2,-,N/A,,Drizzle,240,2012-11-23 06:35:00
12:55 AM,57.2,50.0,77,30.05,10.0,WSW,9.2,-,N/A,Rain,Light Rain,240,2012-11-23 06:55:00
1:15 AM,55.4,51.8,88,30.05,10.0,West,8.1,-,N/A,,Light Drizzle,260,2012-11-23 07:15:00
1:35 AM,55.4,51.8,88,30.06,10.0,WSW,6.9,-,N/A,,Drizzle,240,2012-11-23 07:35:00
1:55 AM,55.4,51.8,88,30.07,10.0,West,8.1,-,N/A,,Overcast,270,2012-11-23 07:55:00
2:15 AM,55.4,51.8,88,30.07,10.0,West,10.4,-,N/A,,Overcast,270,2012-11-23 08:15:00
2:35 AM,55.4,53.6,94,30.07,10.0,North,13.8,18.4,N/A,,Overcast,10,2012-11-23 08:35:00
2:55 AM,55.4,53.6,94,30.08,10.0,NNE,11.5,-,N/A,,Overcast,30,2012-11-23 08:55:00
3:15 AM,55.4,46.4,72,30.09,10.0,NNE,21.9,29.9,N/A,,Overcast,30,2012-11-23 09:15:00
3:35 AM,51.8,37.4,58,30.11,10.0,NNE,16.1,31.1,N/A,,Overcast,30,2012-11-23 09:35:00
3:55 AM,51.8,37.4,58,30.11,10.0,NNE,17.3,25.3,N/A,,Overcast,30,2012-11-23 09:55:00
4:15 AM,51.8,39.2,62,30.13,10.0,NNE,12.7,16.1,N/A,,Overcast,30,2012-11-23 10:15:00
4:35 AM,50.0,41.0,71,30.14,10.0,NNE,13.8,-,N/A,,Mostly Cloudy,30,2012-11-23 10:35:00
4:55 AM,50.0,39.2,66,30.14,10.0,NNE,12.7,17.3,N/A,,Mostly Cloudy,30,2012-11-23 10:55:00
5:15 AM,46.4,37.4,71,30.15,10.0,NNE,8.1,-,N/A,,Scattered Clouds,30,2012-11-23 11:15:00
5:35 AM,46.4,37.4,71,30.15,10.0,NNE,6.9,-,N/A,,Clear,30,2012-11-23 11:35:00
5:55 AM,44.6,37.4,76,30.16,10.0,NNE,6.9,-,N/A,,Clear,30,2012-11-23 11:55:00
6:15 AM,44.6,37.4,76,30.17,10.0,NNE,9.2,-,N/A,,Clear,30,2012-11-23 12:15:00
6:35 AM,44.6,37.4,76,30.17,10.0,NNE,9.2,-,N/A,,Clear,30,2012-11-23 12:35:00
6:55 AM,44.6,37.4,76,30.18,10.0,NNE,10.4,-,N/A,,Clear,30,2012-11-23 12:55:00
7:15 AM,44.6,35.6,71,30.19,10.0,NNE,6.9,-,N/A,,Clear,30,2012-11-23 13:15:00
7:35 AM,44.6,35.6,71,30.19,10.0,NNE,5.8,-,N/A,,Clear,30,2012-11-23 13:35:00
7:55 AM,46.4,33.8,62,30.20,10.0,NNE,6.9,-,N/A,,Clear,30,2012-11-23 13:55:00
8:15 AM,46.4,35.6,66,30.20,10.0,NNE,6.9,-,N/A,,Clear,20,2012-11-23 14:15:00
8:35 AM,46.4,35.6,66,30.21,10.0,North,11.5,-,N/A,,Clear,10,2012-11-23 14:35:00
8:55 AM,48.2,35.6,62,30.21,10.0,NNE,10.4,-,N/A,,Clear,20,2012-11-23 14:55:00
9:15 AM,48.2,33.8,58,30.21,10.0,NNE,10.4,17.3,N/A,,Clear,20,2012-11-23 15:15:00
9:35 AM,50.0,33.8,54,30.21,10.0,NNE,12.7,17.3,N/A,,Clear,20,2012-11-23 15:35:00
9:55 AM,50.0,33.8,54,30.22,10.0,NNE,13.8,20.7,N/A,,Clear,30,2012-11-23 15:55:00
10:15 AM,50.0,33.8,54,30.22,10.0,NNE,18.4,25.3,N/A,,Scattered Clouds,30,2012-11-23 16:15:00
10:35 AM,50.0,33.8,54,30.22,10.0,NNE,16.1,23.0,N/A,,Scattered Clouds,30,2012-11-23 16:35:00
10:55 AM,50.0,35.6,58,30.22,10.0,NNE,12.7,24.2,N/A,,Mostly Cloudy,30,2012-11-23 16:55:00
11:15 AM,50.0,35.6,58,30.21,10.0,NE,18.4,26.5,N/A,,Overcast,40,2012-11-23 17:15:00
11:35 AM,46.4,33.8,62,30.22,10.0,NNE,17.3,25.3,N/A,,Unknown,30,2012-11-23 17:35:00
11:55 AM,46.4,32.0,57,30.22,10.0,NNE,17.3,28.8,N/A,,Overcast,30,2012-11-23 17:55:00
12:15 PM,46.4,32.0,57,30.22,10.0,NNE,20.7,27.6,N/A,,Overcast,30,2012-11-23 18:15:00
12:35 PM,48.2,32.0,54,30.21,10.0,NNE,20.7,24.2,N/A,,Mostly Cloudy,30,2012-11-23 18:35:00
12:55 PM,48.2,32.0,54,30.21,10.0,NNE,17.3,24.2,N/A,,Scattered Clouds,30,2012-11-23 18:55:00
1:15 PM,48.2,32.0,54,30.21,10.0,NNE,16.1,25.3,N/A,,Scattered Clouds,30,2012-11-23 19:15:00
1:35 PM,48.2,32.0,54,30.21,10.0,NNE,16.1,-,N/A,,Scattered Clouds,30,2012-11-23 19:35:00
1:55 PM,48.2,32.0,54,30.21,10.0,NNE,13.8,25.3,N/A,,Scattered Clouds,30,2012-11-23 19:55:00
2:15 PM,46.4,30.2,53,30.22,10.0,NNE,24.2,28.8,N/A,,Scattered Clouds,30,2012-11-23 20:15:00
2:35 PM,46.4,30.2,53,30.22,10.0,NNE,13.8,20.7,N/A,,Clear,30,2012-11-23 20:35:00
2:55 PM,46.4,26.6,46,30.23,10.0,NNE,15.0,26.5,N/A,,Clear,30,2012-11-23 20:55:00
3:15 PM,46.4,26.6,46,30.23,10.0,NNE,12.7,20.7,N/A,,Clear,30,2012-11-23 21:15:00
3:35 PM,46.4,24.8,43,30.24,10.0,NE,15.0,25.3,N/A,,Clear,40,2012-11-23 21:35:00
3:55 PM,44.6,26.6,49,30.24,10.0,NNE,11.5,23.0,N/A,,Clear,30,2012-11-23 21:55:00
4:15 PM,44.6,26.6,49,30.25,10.0,NNE,8.1,19.6,N/A,,Clear,30,2012-11-23 22:15:00
4:35 PM,42.8,26.6,53,30.26,10.0,NNE,13.8,-,N/A,,Clear,30,2012-11-23 22:35:00
4:55 PM,42.8,26.6,53,30.26,10.0,NNE,9.2,-,N/A,,Clear,30,2012-11-23 22:55:00
5:15 PM,41.0,24.8,53,30.26,10.0,NE,9.2,-,N/A,,Clear,40,2012-11-23 23:15:00
5:35 PM,41.0,23.0,49,30.28,10.0,NNE,11.5,17.3,N/A,,Clear,30,2012-11-23 23:35:00
5:55 PM,41.0,23.0,49,30.28,10.0,NNE,11.5,-,N/A,,Clear,30,2012-11-23 23:55:00
6:15 PM,37.4,24.8,60,30.29,10.0,NNE,8.1,-,N/A,,Clear,30,2012-11-24 00:15:00
6:35 PM,37.4,24.8,60,30.29,10.0,NNE,6.9,-,N/A,,Clear,30,2012-11-24 00:35:00
6:55 PM,37.4,24.8,60,30.29,10.0,NNE,8.1,-,N/A,,Clear,30,2012-11-24 00:55:00
7:15 PM,35.6,24.8,65,30.30,10.0,NNE,8.1,-,N/A,,Clear,20,2012-11-24 01:15:00
7:35 PM,37.4,23.0,56,30.31,10.0,NNE,10.4,-,N/A,,Clear,20,2012-11-24 01:35:00
7:55 PM,35.6,24.8,65,30.31,10.0,NNE,8.1,-,N/A,,Clear,20,2012-11-24 01:55:00
8:15 PM,35.6,23.0,60,30.31,10.0,NNE,8.1,-,N/A,,Clear,20,2012-11-24 02:15:00
8:35 PM,35.6,23.0,60,30.31,10.0,NNE,9.2,-,N/A,,Clear,30,2012-11-24 02:35:00
8:55 PM,35.6,23.0,60,30.31,10.0,NNE,12.7,18.4,N/A,,Clear,20,2012-11-24 02:55:00
9:15 PM,33.8,23.0,65,30.31,10.0,NNE,10.4,-,N/A,,Clear,20,2012-11-24 03:15:00
9:35 PM,33.8,23.0,65,30.31,10.0,NNE,8.1,-,N/A,,Clear,30,2012-11-24 03:35:00
9:55 PM,33.8,23.0,65,30.32,10.0,NNE,9.2,-,N/A,,Clear,30,2012-11-24 03:55:00
10:15 PM,33.8,23.0,65,30.32,10.0,NNE,8.1,-,N/A,,Clear,30,2012-11-24 04:15:00
10:35 PM,32.0,23.0,69,30.33,10.0,NNE,6.9,-,N/A,,Clear,20,2012-11-24 04:35:00
10:55 PM,32.0,23.0,69,30.32,10.0,NNE,5.8,-,N/A,,Clear,20,2012-11-24 04:55:00
11:15 PM,32.0,23.0,69,30.32,10.0,NNE,8.1,-,N/A,,Clear,20,2012-11-24 05:15:00
11:35 PM,32.0,23.0,69,30.32,10.0,NNE,8.1,-,N/A,,Clear,30,2012-11-24 05:35:00
11:55 PM,32.0,21.2,64,30.32,10.0,NNE,8.1,-,N/A,,Clear,30,2012-11-24 05:55:00